Reserve, NM (87830)

5:46 AM MDT on September 05, 2015 (GMT -0600)
Saint Johns Industrial | | Change Station
CLOSE
Current Station
Airport
Location: St. Johns,
Elevation: 5725 ft
Nearby Weather Stations

Elev 5725 ft 34.52 °N, 109.38 °W | Updated 52 minutes ago

Partly Cloudy
Partly Cloudy
62 °F
Feels Like 62 °F
N
0
Wind Variable Wind from North

Today
High -- | Low -- °F
--% Chance of Precip.
Yesterday
High -- | Low -- °F
Precip. -- in
6:51 AM 7:35 PM
Waning Gibbous, 49% visible
Pressure 29.88 in
Visibility 10.0 miles
Clouds Clear
Dew Point 56 °F
Humidity 80%
Rainfall 0.00 in
Snow Depth Not available.
UV 0 out of 12
Pollen 3.80 out of 12
Air Quality Not available.
Flu Activity Not available.
METAR KSJN 051054Z AUTO 00000KT 10SM CLR 17/13 A3013 RMK AO2 SLP119 T01670133
Pressure 29.88 in
Visibility 10.0 miles
Clouds Clear
Dew Point 56 °F
Humidity 80%
Rainfall 0.00 in
Snow Depth Not available.
UV 0 out of 12
Pollen 3.80 out of 12
Air Quality Not available.
Flu Activity Not available.
METAR KSJN 051054Z AUTO 00000KT 10SM CLR 17/13 A3013 RMK AO2 SLP119 T01670133

10-Day Weather Forecast

×

Almanac

Astronomy

Sep. 05, 2015 Rise Set
Actual Time
Civil Twilight
Nautical Twilight
Astronomical Twilight
Moon
Length of Visible Light
Length of Day
Tomorrow will be .
, % of the Moon is Illuminated

Today's Extremes

State Highs State Lows

Community

WunderPhotos

Upload Photos

1,852,449 photos uploaded!

WunderBlogs® & News

Nearby

Air Quality

  Air Quality AQ Index Pollutant
Not available.

Snow Depth

Station Depth Elevation

Earthquake Activity

City Distance Mag. Time & Date
Minimum magnitude displayed is 2.5.

Coastal Water Temperatures

Place Temperature

Stations

Nearby Weather Stations

Station Location Temp. Windchill Dew Point Humidity Wind Precip. Elev Updated Type